Terminal Aerodrome Forecast
Issued by NWS

Current Version | Previous Version | Graphics & Text | Print | Product List | Glossary On
Versions: 1 2 3 4 5 6 7 8 9 10 11 12 13 14 15 16 17 18 19 20
000
FTUS41 KPBZ 032206 AAA
TAFHLG
TAF AMD
KHLG 032206Z 0322/0418 10003KT 5SM -SHRA OVC035
      TEMPO 0322/0324 1 1/2SM -SHRA BKN025
     FM040200 07005KT 5SM -SHRA BR OVC020
     FM040500 VRB05KT 3SM -SHRA BR OVC007
     FM041500 32008KT P6SM BKN015=

USA.gov is the U.S. government's official web portal to all federal, state and local government web resources and services.